Time;durP1;ratioP1;P1;durP2;ratioP2;P2;SDS_P1;SDS_P2;PMS_P1;PMS_P2;Temp;Humidity;BMP_temperature;BMP_pressure;BME280_temperature;BME280_humidity;BME280_pressure;Samples;Min_cycle;Max_cycle;Signal;HPM_P1;HPM_P2
2023/10/31 00:01:54;;;;;;;11.77;3.28;;;19.20;90.90;;;;;;10490930;28;20083;-36
2023/10/31 00:06:55;;;;;;;9.18;3.92;;;18.90;90.70;;;;;;10490502;28;20047;-40
2023/10/31 00:11:59;;;;;;;6.63;3.35;;;18.80;92.20;;;;;;10496661;28;20140;-33
2023/10/31 00:17:01;;;;;;;9.95;3.75;;;18.90;91.70;;;;;;10489205;28;20097;-32
2023/10/31 00:22:03;;;;;;;7.68;3.17;;;18.90;91.40;;;;;;10496475;28;20122;-39
2023/10/31 00:27:06;;;;;;;5.77;2.57;;;18.30;92.00;;;;;;10500154;28;20109;-30
2023/10/31 00:32:07;;;;;;;6.20;1.38;;;16.70;99.80;;;;;;10499360;28;20545;-40
2023/10/31 00:37:09;;;;;;;6.80;2.57;;;16.30;99.50;;;;;;10503389;28;20054;-31
2023/10/31 00:42:12;;;;;;;6.17;2.70;;;15.50;99.90;;;;;;10507938;28;20060;-33
2023/10/31 00:47:15;;;;;;;7.07;1.70;;;16.40;99.90;;;;;;10500197;28;20486;-36
2023/10/31 00:52:16;;;;;;;5.65;2.03;;;15.40;99.90;;;;;;10507330;28;20059;-37
2023/10/31 00:57:20;;;;;;;3.80;1.50;;;17.20;99.90;;;;;;10508901;28;20055;-31
2023/10/31 01:02:22;;;;;;;6.18;2.95;;;16.40;99.90;;;;;;10506759;28;20798;-31
2023/10/31 01:07:24;;;;;;;5.70;3.10;;;17.60;99.30;;;;;;10494346;28;20063;-32
2023/10/31 01:12:28;;;;;;;6.45;3.30;;;17.90;97.40;;;;;;10507491;28;20040;-37
2023/10/31 01:17:30;;;;;;;6.38;2.60;;;18.20;96.00;;;;;;10509317;28;20570;-37
2023/10/31 01:22:32;;;;;;;4.45;1.70;;;18.40;94.80;;;;;;10505427;28;20051;-41
2023/10/31 01:27:35;;;;;;;3.50;2.40;;;17.60;95.90;;;;;;10506843;28;20114;-38
2023/10/31 01:32:37;;;;;;;3.53;1.75;;;17.50;98.20;;;;;;10501773;28;20474;-34
2023/10/31 01:37:39;;;;;;;10.33;2.40;;;16.10;99.90;;;;;;10496309;28;20396;-31
2023/10/31 01:42:42;;;;;;;7.55;1.48;;;16.10;99.90;;;;;;10503792;28;20485;-31
2023/10/31 01:47:47;;;;;;;5.07;1.48;;;15.30;99.90;;;;;;10489265;28;20044;-43
2023/10/31 01:52:49;;;;;;;5.95;1.58;;;15.20;99.90;;;;;;10498573;28;20068;-32
2023/10/31 01:57:53;;;;;;;4.85;0.70;;;14.40;99.90;;;;;;10487775;28;20055;-37
2023/10/31 02:02:55;;;;;;;5.28;1.20;;;14.70;99.90;;;;;;10499321;28;20113;-32
2023/10/31 02:07:57;;;;;;;5.05;1.67;;;14.20;99.90;;;;;;10499915;28;20066;-35
2023/10/31 02:13:10;;;;;;;4.32;0.93;;;13.50;99.90;;;;;;10496594;28;20128;-35
2023/10/31 02:18:13;;;;;;;3.35;0.90;;;12.90;99.90;;;;;;10498605;28;20101;-31
2023/10/31 02:23:17;;;;;;;5.40;0.70;;;14.00;99.90;;;;;;10492812;28;20116;-49
2023/10/31 02:28:19;;;;;;;6.38;1.75;;;13.80;99.90;;;;;;10487902;28;20059;-31
2023/10/31 02:33:21;;;;;;;4.00;1.60;;;14.70;99.90;;;;;;10505125;28;20140;-31
2023/10/31 02:38:24;;;;;;;2.67;1.35;;;16.40;99.90;;;;;;10501120;28;20113;-39
2023/10/31 02:43:26;;;;;;;5.50;2.25;;;16.30;99.90;;;;;;10487873;28;20046;-31
2023/10/31 02:48:29;;;;;;;4.90;2.27;;;16.80;99.90;;;;;;10501508;28;20151;-37
2023/10/31 02:53:32;;;;;;;3.63;1.65;;;16.50;99.90;;;;;;10502056;28;20472;-40
2023/10/31 02:58:33;;;;;;;6.25;1.73;;;15.80;99.90;;;;;;10495573;28;20186;-34
2023/10/31 03:03:35;;;;;;;2.50;1.10;;;15.60;99.90;;;;;;10495683;28;20057;-34
2023/10/31 03:08:39;;;;;;;4.28;1.50;;;14.70;99.90;;;;;;10499516;28;20056;-32
2023/10/31 03:13:40;;;;;;;7.00;1.48;;;14.90;99.90;;;;;;10493883;28;20044;-32
2023/10/31 03:18:42;;;;;;;3.05;0.90;;;14.60;99.90;;;;;;10497105;28;20043;-31
2023/10/31 03:23:49;;;;;;;4.27;1.73;;;14.60;99.90;;;;;;10500939;28;20470;-32
2023/10/31 03:28:56;;;;;;;8.15;1.05;;;16.40;99.90;;;;;;10500143;28;20138;-34
2023/10/31 03:33:58;;;;;;;3.95;1.63;;;16.90;99.90;;;;;;10499911;28;20040;-35
2023/10/31 03:39:02;;;;;;;2.23;1.23;;;17.90;97.40;;;;;;10505607;28;20051;-36
2023/10/31 03:44:04;;;;;;;2.13;1.20;;;18.50;94.60;;;;;;10482409;28;20056;-38
2023/10/31 03:49:07;;;;;;;2.90;1.23;;;18.80;93.10;;;;;;10494416;28;20060;-37
2023/10/31 03:54:10;;;;;;;3.95;1.27;;;18.90;92.40;;;;;;10499599;28;20075;-38
2023/10/31 03:59:12;;;;;;;3.80;1.38;;;18.80;92.70;;;;;;10495535;28;20044;-31
2023/10/31 04:04:14;;;;;;;4.53;1.65;;;18.70;92.80;;;;;;10492077;28;20078;-33
2023/10/31 04:15:30;;;;;;;2.70;1.67;;;17.90;94.30;;;;;;10505259;27;20107;-37
2023/10/31 04:20:32;;;;;;;1.63;1.02;;;18.80;92.30;;;;;;10531820;28;20127;-38
2023/10/31 04:25:33;;;;;;;1.85;1.05;;;19.00;91.20;;;;;;10537786;28;20039;-40
2023/10/31 04:30:37;;;;;;;1.90;1.20;;;19.10;90.90;;;;;;10527724;28;20490;-38
2023/10/31 04:35:38;;;;;;;2.42;1.30;;;19.00;90.90;;;;;;10528052;28;20945;-35
2023/10/31 04:40:40;;;;;;;2.58;1.23;;;19.20;90.20;;;;;;10531749;28;20062;-34
2023/10/31 04:45:43;;;;;;;1.80;0.95;;;19.20;89.80;;;;;;10531362;28;20145;-31
2023/10/31 04:50:45;;;;;;;1.65;1.10;;;18.90;90.80;;;;;;10508444;28;20359;-39
2023/10/31 04:55:47;;;;;;;8.57;0.63;;;17.10;97.60;;;;;;10538562;28;20047;-36
2023/10/31 05:00:51;;;;;;;3.80;1.00;;;17.80;93.90;;;;;;10525330;28;20048;-50
2023/10/31 05:05:53;;;;;;;3.47;1.10;;;17.70;94.80;;;;;;10522420;28;20784;-37
2023/10/31 05:10:55;;;;;;;4.20;1.92;;;17.50;96.50;;;;;;10528356;28;20273;-32
2023/10/31 05:15:59;;;;;;;1.58;0.88;;;14.90;99.90;;;;;;10532695;28;20139;-32
2023/10/31 05:21:01;;;;;;;0.93;0.45;;;16.20;99.90;;;;;;10514063;28;20052;-35
2023/10/31 05:26:06;;;;;;;1.88;0.70;;;14.60;99.90;;;;;;10500930;28;20045;-34
2023/10/31 05:31:09;;;;;;;2.03;0.50;;;15.60;99.90;;;;;;10502074;28;20049;-41
2023/10/31 05:36:19;;;;;;;3.15;0.70;;;15.30;99.90;;;;;;10485899;28;20118;-36
2023/10/31 05:41:22;;;;;;;1.65;0.75;;;15.30;99.90;;;;;;10500466;28;20068;-35
2023/10/31 05:46:26;;;;;;;2.03;0.70;;;16.50;99.30;;;;;;10492609;28;20470;-32
2023/10/31 05:51:29;;;;;;;2.92;1.10;;;15.90;99.90;;;;;;10491975;28;20052;-36
2023/10/31 05:56:31;;;;;;;2.30;0.57;;;16.90;99.90;;;;;;10503204;28;20040;-33
2023/10/31 06:01:35;;;;;;;1.80;0.47;;;17.10;99.40;;;;;;10496848;28;20512;-39
2023/10/31 06:06:39;;;;;;;3.38;0.90;;;16.70;99.80;;;;;;10491103;28;20037;-43
2023/10/31 06:11:42;;;;;;;1.85;0.70;;;17.20;99.40;;;;;;10493464;28;20125;-38
2023/10/31 06:16:45;;;;;;;3.10;0.70;;;17.20;97.70;;;;;;10499276;28;20550;-33
2023/10/31 06:21:48;;;;;;;3.08;0.82;;;16.70;98.50;;;;;;10496730;28;20469;-34
2023/10/31 06:26:49;;;;;;;3.67;0.60;;;17.30;98.50;;;;;;10496108;28;20066;-35
2023/10/31 06:31:52;;;;;;;4.28;0.88;;;17.50;97.10;;;;;;10490902;28;20485;-38
2023/10/31 06:36:54;;;;;;;1.25;0.50;;;17.20;99.20;;;;;;10494998;28;20183;-44
2023/10/31 06:41:56;;;;;;;2.35;0.90;;;18.20;95.50;;;;;;10489242;28;20086;-40
2023/10/31 06:46:59;;;;;;;1.80;0.70;;;18.90;92.50;;;;;;10479560;28;20318;-40
2023/10/31 06:52:01;;;;;;;1.23;0.52;;;19.10;91.30;;;;;;10486888;28;20036;-39
2023/10/31 06:57:04;;;;;;;2.50;0.60;;;19.20;90.70;;;;;;10479898;28;20044;-47
2023/10/31 07:02:08;;;;;;;2.50;0.68;;;19.20;90.40;;;;;;10486004;28;20042;-39
2023/10/31 07:07:10;;;;;;;4.60;0.60;;;19.30;90.10;;;;;;10481708;28;20451;-44
2023/10/31 07:12:12;;;;;;;1.20;0.50;;;19.30;90.10;;;;;;10488901;28;20173;-35
2023/10/31 07:17:15;;;;;;;1.95;0.63;;;19.00;90.60;;;;;;10489777;28;20048;-40
2023/10/31 07:22:17;;;;;;;2.05;0.63;;;18.50;92.80;;;;;;10489388;28;20571;-38
2023/10/31 07:27:19;;;;;;;4.90;0.90;;;19.00;90.90;;;;;;10480709;28;20127;-31
2023/10/31 07:32:22;;;;;;;2.03;0.77;;;19.20;90.50;;;;;;10473276;28;20127;-38
2023/10/31 07:37:29;;;;;;;2.25;0.70;;;19.30;89.70;;;;;;10498336;28;20044;-49
2023/10/31 07:43:03;;;;;;;1.65;1.08;;;19.30;89.10;;;;;;10494615;28;20052;-37
2023/10/31 07:48:48;;;;;;;1.15;0.40;;;19.40;88.70;;;;;;10491550;28;20040;-36
2023/10/31 07:54:16;;;;;;;0.47;0.40;;;19.50;88.40;;;;;;10494971;28;20043;-36
2023/10/31 07:59:19;;;;;;;5.93;0.88;;;19.40;89.00;;;;;;10485648;28;20093;-40
2023/10/31 08:04:22;;;;;;;3.70;0.73;;;19.00;90.80;;;;;;10488687;28;20044;-41
2023/10/31 08:09:23;;;;;;;2.53;1.23;;;18.40;92.30;;;;;;10487538;28;20093;-34
2023/10/31 08:14:25;;;;;;;4.90;1.30;;;18.20;93.50;;;;;;10488087;28;20137;-45
2023/10/31 08:19:28;;;;;;;5.07;1.63;;;18.30;92.90;;;;;;10481172;28;20099;-29
2023/10/31 08:24:30;;;;;;;6.15;1.45;;;17.30;96.60;;;;;;10485229;28;20108;-41
2023/10/31 08:29:32;;;;;;;5.27;1.47;;;15.00;99.90;;;;;;10487924;28;20052;-40
2023/10/31 08:34:35;;;;;;;2.53;0.70;;;15.10;99.90;;;;;;10494096;28;20071;-38
2023/10/31 08:39:37;;;;;;;3.40;0.82;;;16.10;99.90;;;;;;10486526;28;20036;-34
2023/10/31 08:44:41;;;;;;;5.63;0.97;;;17.00;99.90;;;;;;10484731;28;20041;-31
2023/10/31 08:49:45;;;;;;;4.35;0.70;;;18.40;95.60;;;;;;10471288;28;20048;-37
2023/10/31 08:54:46;;;;;;;2.50;1.00;;;18.70;94.10;;;;;;10470742;28;20150;-31
2023/10/31 08:59:49;;;;;;;5.20;1.07;;;17.70;97.30;;;;;;10478549;28;20102;-35
2023/10/31 09:04:52;;;;;;;4.30;1.00;;;18.10;96.60;;;;;;10491744;28;20048;-37
2023/10/31 09:09:54;;;;;;;6.35;1.10;;;18.80;93.30;;;;;;10491062;28;20105;-34
2023/10/31 09:14:55;;;;;;;4.13;1.38;;;18.80;93.00;;;;;;10499216;28;20562;-34
2023/10/31 09:19:59;;;;;;;3.03;0.75;;;19.10;91.60;;;;;;10488619;28;20040;-42
2023/10/31 09:25:02;;;;;;;8.38;1.75;;;19.30;91.10;;;;;;10488000;28;20484;-38
2023/10/31 09:30:05;;;;;;;2.03;0.73;;;19.40;90.60;;;;;;10490326;28;20093;-41
2023/10/31 09:35:09;;;;;;;2.92;0.90;;;19.40;90.60;;;;;;10498965;28;20040;-33
2023/10/31 09:40:11;;;;;;;6.18;1.05;;;19.40;90.20;;;;;;10494798;28;20044;-37
2023/10/31 09:45:13;;;;;;;;;;;19.40;90.00;;;;;;10497396;28;20044;-44
2023/10/31 09:50:16;;;;;;;4.07;1.00;;;19.40;89.80;;;;;;10488899;28;19924;-38
2023/10/31 09:55:19;;;;;;;4.55;1.75;;;19.20;90.60;;;;;;10479618;28;20068;-41
2023/10/31 10:00:21;;;;;;;12.50;1.60;;;17.10;97.60;;;;;;10501594;28;20051;-36
2023/10/31 10:05:26;;;;;;;5.63;1.23;;;15.90;99.90;;;;;;10491623;28;20051;-38
2023/10/31 10:10:29;;;;;;;5.00;1.15;;;16.80;99.90;;;;;;10485648;28;20090;-33
2023/10/31 10:15:30;;;;;;;7.05;1.63;;;17.90;97.40;;;;;;10470628;28;20053;-35
2023/10/31 10:20:34;;;;;;;5.17;1.20;;;18.00;96.70;;;;;;10487002;28;20097;-33
2023/10/31 10:25:36;;;;;;;4.10;1.30;;;17.40;99.20;;;;;;10481979;28;20498;-36
2023/10/31 10:30:38;;;;;;;4.82;1.60;;;18.50;94.90;;;;;;10483038;28;20045;-35
2023/10/31 10:35:41;;;;;;;7.45;1.80;;;18.70;93.90;;;;;;10489567;28;20083;-32
2023/10/31 10:40:44;;;;;;;13.40;3.30;;;17.40;97.70;;;;;;10491983;28;20045;-38
2023/10/31 10:45:48;;;;;;;9.30;3.85;;;16.70;99.90;;;;;;10481056;28;20084;-34
2023/10/31 10:50:57;;;;;;;14.68;4.55;;;15.10;99.90;;;;;;10489750;28;20052;-32
2023/10/31 10:56:03;;;;;;;8.57;3.92;;;14.50;99.90;;;;;;10473457;28;20523;-33
2023/10/31 11:01:05;;;;;;;14.30;7.65;;;14.50;99.90;;;;;;10485441;28;20076;-37
2023/10/31 11:06:09;;;;;;;;;;;14.10;99.90;;;;;;10486855;28;20044;-39
2023/10/31 11:11:11;;;;;;;8.05;3.85;;;15.30;99.90;;;;;;10497214;28;20005;-36
2023/10/31 11:16:21;;;;;;;7.28;3.60;;;15.70;99.90;;;;;;10483266;28;20914;-42
2023/10/31 11:21:24;;;;;;;7.40;4.97;;;16.00;99.90;;;;;;10495936;28;20098;-36
2023/10/31 11:26:27;;;;;;;9.43;4.10;;;15.00;99.90;;;;;;10489485;28;20433;-38
2023/10/31 11:31:29;;;;;;;11.15;5.93;;;16.40;99.90;;;;;;10491176;28;20043;-36
2023/10/31 11:36:34;;;;;;;13.30;6.50;;;16.80;99.90;;;;;;10491591;28;20131;-44
2023/10/31 11:41:38;;;;;;;12.20;8.25;;;16.30;99.90;;;;;;10489976;28;20163;-39
2023/10/31 11:46:41;;;;;;;13.43;8.32;;;16.20;99.90;;;;;;10485135;28;20044;-42
2023/10/31 11:51:47;;;;;;;;;;;15.90;99.90;;;;;;10491409;28;20051;-43
2023/10/31 11:56:52;;;;;;;7.82;3.90;;;15.70;99.90;;;;;;10493720;28;19923;-32
2023/10/31 12:01:54;;;;;;;21.58;13.45;;;15.90;99.90;;;;;;10489675;28;20047;-33
2023/10/31 12:07:02;;;;;;;14.13;8.60;;;15.80;99.90;;;;;;10479950;28;20150;-31
2023/10/31 12:12:04;;;;;;;14.25;10.20;;;16.90;99.90;;;;;;10483635;28;20432;-43
2023/10/31 12:17:06;;;;;;;7.55;3.80;;;16.70;99.90;;;;;;10494585;28;20044;-33
2023/10/31 12:22:15;;;;;;;;;;;16.40;99.90;;;;;;10486614;28;20250;-36
2023/10/31 12:27:17;;;;;;;16.58;10.85;;;15.90;99.90;;;;;;10496335;28;20364;-32
2023/10/31 12:32:19;;;;;;;10.70;6.20;;;15.40;99.90;;;;;;10484169;28;20044;-50
2023/10/31 12:37:22;;;;;;;17.67;12.43;;;16.30;99.90;;;;;;10484672;28;20698;-36
2023/10/31 12:42:29;;;;;;;9.65;7.47;;;15.20;99.90;;;;;;10501458;28;20651;-30
2023/10/31 12:47:30;;;;;;;15.63;12.00;;;15.90;99.90;;;;;;10492598;28;20501;-40
2023/10/31 12:52:52;;;;;;;16.85;9.93;;;15.50;99.90;;;;;;10489171;28;20534;-39
2023/10/31 12:57:54;;;;;;;12.38;9.05;;;15.70;99.90;;;;;;10501480;28;20083;-41
2023/10/31 13:03:01;;;;;;;11.87;8.10;;;16.10;99.90;;;;;;10495964;28;20139;-41
2023/10/31 13:08:06;;;;;;;23.73;16.75;;;16.20;99.90;;;;;;10493781;28;20047;-43
2023/10/31 13:13:08;;;;;;;22.70;11.38;;;15.60;99.90;;;;;;10493265;28;20195;-42
2023/10/31 13:18:11;;;;;;;15.77;11.23;;;15.80;99.90;;;;;;10491270;28;20067;-40
2023/10/31 13:23:14;;;;;;;17.60;11.05;;;16.00;99.90;;;;;;10497966;28;20051;-37
2023/10/31 13:28:16;;;;;;;16.45;9.88;;;15.90;99.90;;;;;;10494804;28;20465;-37
2023/10/31 13:33:17;;;;;;;19.50;10.43;;;15.20;99.90;;;;;;10498221;28;20568;-34
2023/10/31 13:38:20;;;;;;;23.70;13.80;;;16.00;99.90;;;;;;10496033;28;20131;-31
2023/10/31 13:43:22;;;;;;;15.75;9.98;;;15.20;99.90;;;;;;10490311;28;20094;-33
2023/10/31 13:48:24;;;;;;;14.23;10.73;;;15.80;99.90;;;;;;10495627;28;20039;-32
2023/10/31 13:53:27;;;;;;;11.75;7.72;;;14.70;99.90;;;;;;10503999;28;20075;-41
2023/10/31 13:58:29;;;;;;;10.27;6.57;;;15.20;99.90;;;;;;10488027;28;20542;-37
2023/10/31 14:03:31;;;;;;;9.20;7.45;;;15.20;99.90;;;;;;10489801;28;20075;-36
2023/10/31 14:08:34;;;;;;;6.27;4.43;;;14.80;99.90;;;;;;10492358;28;20044;-34
2023/10/31 14:13:37;;;;;;;6.65;5.15;;;16.90;99.90;;;;;;10492711;28;20048;-36
2023/10/31 14:18:39;;;;;;;5.85;4.30;;;17.40;99.90;;;;;;10493008;28;20082;-36
2023/10/31 14:23:44;;;;;;;4.17;3.33;;;16.90;99.90;;;;;;10498806;28;20440;-38
2023/10/31 14:28:46;;;;;;;4.03;3.50;;;17.40;99.90;;;;;;10481640;28;20482;-40
2023/10/31 14:33:48;;;;;;;5.17;3.90;;;17.70;99.90;;;;;;10492527;28;20071;-40
2023/10/31 14:38:51;;;;;;;4.65;3.72;;;17.20;99.90;;;;;;10490515;28;20036;-34
2023/10/31 14:43:53;;;;;;;6.35;5.10;;;16.90;99.90;;;;;;10498887;28;20514;-34
2023/10/31 14:48:55;;;;;;;3.40;2.70;;;16.40;99.90;;;;;;10489048;28;20089;-33
2023/10/31 14:53:59;;;;;;;4.63;3.43;;;17.70;99.90;;;;;;10481710;28;20516;-41
2023/10/31 14:59:02;;;;;;;3.15;2.85;;;17.50;99.90;;;;;;10482550;28;20142;-37
2023/10/31 15:04:04;;;;;;;8.30;3.90;;;17.80;99.90;;;;;;10491583;28;20965;-31
2023/10/31 15:09:07;;;;;;;3.25;2.80;;;16.90;99.90;;;;;;10489793;28;20063;-36
2023/10/31 15:14:09;;;;;;;4.25;3.13;;;17.70;99.90;;;;;;10479376;28;20048;-35
2023/10/31 15:19:11;;;;;;;6.20;5.20;;;17.70;99.60;;;;;;10487822;28;20535;-36
2023/10/31 15:24:14;;;;;;;8.40;6.43;;;16.10;99.90;;;;;;10482300;28;20482;-31
2023/10/31 15:29:16;;;;;;;4.30;3.42;;;14.80;99.90;;;;;;10493846;28;20083;-42
2023/10/31 15:34:17;;;;;;;8.10;5.73;;;15.10;99.90;;;;;;10492245;28;20121;-39
2023/10/31 15:39:21;;;;;;;7.40;4.70;;;14.60;99.90;;;;;;10476135;28;20130;-33
2023/10/31 15:44:23;;;;;;;7.20;5.18;;;14.80;99.90;;;;;;10487783;28;20101;-38
2023/10/31 15:49:25;;;;;;;7.07;5.28;;;15.10;99.90;;;;;;10486406;28;20037;-36
2023/10/31 15:54:29;;;;;;;8.03;6.67;;;14.40;99.90;;;;;;10495242;28;20503;-37
2023/10/31 15:59:30;;;;;;;4.65;3.80;;;13.70;99.90;;;;;;10485620;28;20492;-37
2023/10/31 16:04:32;;;;;;;5.05;2.70;;;15.60;99.90;;;;;;10484073;28;20051;-32
2023/10/31 16:09:35;;;;;;;3.73;2.57;;;16.50;99.90;;;;;;10491967;28;20423;-39
2023/10/31 16:14:37;;;;;;;2.78;1.67;;;18.10;98.90;;;;;;10490170;28;20594;-35
2023/10/31 16:19:39;;;;;;;8.23;2.17;;;18.70;96.40;;;;;;10492507;28;20040;-32
2023/10/31 16:24:42;;;;;;;2.40;1.60;;;18.50;96.00;;;;;;10490773;28;20483;-49
2023/10/31 16:29:44;;;;;;;2.63;1.77;;;19.10;94.40;;;;;;10499486;28;20119;-36
2023/10/31 16:34:46;;;;;;;2.63;1.52;;;18.90;94.90;;;;;;10476614;28;20076;-33
2023/10/31 16:39:49;;;;;;;;;;;19.40;93.10;;;;;;10487442;28;20554;-40
2023/10/31 16:44:51;;;;;;;2.85;1.70;;;19.10;92.90;;;;;;10482683;28;20397;-33
2023/10/31 16:49:54;;;;;;;1.85;1.50;;;19.00;94.00;;;;;;10486634;28;20044;-41
2023/10/31 16:54:57;;;;;;;3.70;1.77;;;19.20;93.50;;;;;;10484655;28;20427;-48
2023/10/31 16:59:59;;;;;;;3.88;2.00;;;19.10;93.50;;;;;;10484760;28;20040;-35
2023/10/31 17:05:01;;;;;;;2.75;2.08;;;19.00;93.40;;;;;;10486357;28;20052;-40
2023/10/31 17:10:05;;;;;;;5.43;3.60;;;18.50;94.30;;;;;;10474270;28;20056;-42
2023/10/31 17:15:08;;;;;;;3.50;2.40;;;16.80;98.30;;;;;;10493769;28;20478;-40
2023/10/31 17:20:10;;;;;;;3.47;2.15;;;17.30;99.90;;;;;;10491945;28;20051;-38
2023/10/31 17:25:13;;;;;;;4.32;2.17;;;18.30;95.40;;;;;;10484480;28;20063;-39
2023/10/31 17:30:15;;;;;;;3.55;2.33;;;18.50;93.80;;;;;;10497814;28;20202;-34
2023/10/31 17:35:17;;;;;;;5.43;3.10;;;18.40;93.90;;;;;;10499599;28;20056;-32
2023/10/31 17:40:22;;;;;;;6.28;3.63;;;18.50;94.20;;;;;;10496526;28;20056;-34
2023/10/31 17:45:24;;;;;;;7.47;4.28;;;18.20;93.90;;;;;;10500462;28;20047;-35
2023/10/31 17:50:30;;;;;;;9.55;4.10;;;18.20;92.40;;;;;;10501267;28;20050;-33
2023/10/31 17:55:33;;;;;;;8.75;4.97;;;17.90;93.30;;;;;;10489948;28;20109;-41
2023/10/31 18:00:35;;;;;;;14.30;6.60;;;17.80;95.90;;;;;;10504977;28;20057;-35
2023/10/31 18:05:36;;;;;;;8.93;5.25;;;18.20;95.80;;;;;;10495485;28;20075;-42
2023/10/31 18:10:40;;;;;;;14.73;8.00;;;17.80;95.50;;;;;;10487797;28;20102;-35
2023/10/31 18:15:42;;;;;;;19.10;8.18;;;18.00;96.80;;;;;;10493812;28;20075;-44
2023/10/31 18:20:43;;;;;;;15.18;8.13;;;19.10;93.10;;;;;;10497619;28;20449;-41
2023/10/31 18:25:47;;;;;;;21.23;9.30;;;18.90;93.10;;;;;;10499231;28;20051;-37
2023/10/31 18:30:48;;;;;;;15.98;8.02;;;18.90;94.20;;;;;;10477126;28;20133;-33
2023/10/31 18:35:50;;;;;;;12.80;6.78;;;18.20;96.20;;;;;;10491316;28;20061;-37
2023/10/31 18:40:53;;;;;;;15.40;8.27;;;17.70;96.40;;;;;;10492454;28;20101;-35
2023/10/31 18:45:55;;;;;;;15.82;7.47;;;18.20;96.90;;;;;;10481983;28;21009;-35
2023/10/31 18:50:57;;;;;;;9.20;5.67;;;18.50;95.20;;;;;;10485250;28;20093;-32
2023/10/31 18:56:00;;;;;;;12.32;7.28;;;18.10;94.90;;;;;;10466421;28;20508;-34
2023/10/31 19:01:02;;;;;;;12.23;5.35;;;18.30;96.00;;;;;;10478509;28;20461;-32
2023/10/31 19:06:05;;;;;;;13.02;5.70;;;17.30;99.50;;;;;;10479623;28;20045;-32
2023/10/31 19:11:08;;;;;;;10.25;5.32;;;17.80;97.40;;;;;;10495977;28;20062;-37
2023/10/31 19:16:10;;;;;;;11.80;4.82;;;18.10;97.30;;;;;;10489001;28;20068;-36
2023/10/31 19:21:11;;;;;;;7.47;3.23;;;18.70;94.90;;;;;;10496241;28;20456;-33
2023/10/31 19:26:15;;;;;;;10.70;3.30;;;18.70;93.90;;;;;;10487465;28;20577;-33
2023/10/31 19:31:17;;;;;;;10.13;4.43;;;16.60;99.90;;;;;;10478376;28;20064;-29
2023/10/31 19:36:19;;;;;;;13.93;6.17;;;16.40;99.90;;;;;;10481257;28;20477;-31
2023/10/31 19:41:22;;;;;;;12.77;5.70;;;15.70;99.90;;;;;;10490495;28;23291;-30
2023/10/31 19:46:25;;;;;;;8.65;5.18;;;18.40;99.90;;;;;;10485572;28;20048;-32
2023/10/31 19:51:27;;;;;;;11.90;4.97;;;18.70;98.50;;;;;;10488841;28;20108;-34
2023/10/31 19:56:32;;;;;;;5.70;2.10;;;18.80;97.70;;;;;;10483090;28;20048;-32
2023/10/31 20:01:34;;;;;;;8.52;2.90;;;16.50;99.90;;;;;;10487813;28;20036;-36
2023/10/31 20:06:36;;;;;;;7.03;2.33;;;16.50;99.90;;;;;;10496038;28;20084;-34
2023/10/31 20:11:39;;;;;;;7.60;1.73;;;16.50;99.90;;;;;;10487713;28;20947;-38
2023/10/31 20:16:40;;;;;;;8.18;2.72;;;16.50;99.90;;;;;;10485183;28;20051;-53
2023/10/31 20:21:42;;;;;;;5.03;2.03;;;17.00;99.90;;;;;;10495424;28;20044;-29
2023/10/31 20:26:45;;;;;;;11.37;3.43;;;17.20;99.90;;;;;;10494787;28;20044;-36
2023/10/31 20:31:47;;;;;;;8.50;3.80;;;16.80;99.90;;;;;;10488119;28;20079;-36
2023/10/31 20:36:49;;;;;;;14.10;1.80;;;17.10;99.90;;;;;;10492661;28;20611;-38
2023/10/31 20:41:52;;;;;;;9.53;3.97;;;15.90;99.90;;;;;;10489520;28;20052;-31
2023/10/31 20:46:54;;;;;;;10.07;2.92;;;16.70;99.90;;;;;;10486184;28;20589;-35
2023/10/31 20:51:56;;;;;;;2.27;1.30;;;16.90;99.90;;;;;;10493982;28;20054;-28
2023/10/31 20:56:59;;;;;;;7.93;2.53;;;14.60;99.90;;;;;;10492599;28;20506;-35
2023/10/31 21:02:01;;;;;;;6.97;2.90;;;13.80;99.90;;;;;;10484216;28;20113;-37
2023/10/31 21:07:03;;;;;;;5.35;2.88;;;15.50;99.90;;;;;;10500119;28;20040;-31
2023/10/31 21:12:07;;;;;;;8.30;3.73;;;16.40;99.90;;;;;;10496191;28;20134;-31
2023/10/31 21:17:09;;;;;;;9.57;2.90;;;15.70;99.90;;;;;;10479859;28;20587;-31
2023/10/31 21:22:11;;;;;;;12.67;2.33;;;15.10;99.90;;;;;;10501020;28;20497;-35
2023/10/31 21:27:14;;;;;;;8.27;2.50;;;15.20;99.90;;;;;;10497411;28;20423;-39
2023/10/31 21:32:16;;;;;;;10.60;2.80;;;14.00;99.90;;;;;;10486601;28;20060;-35
2023/10/31 21:37:18;;;;;;;15.17;3.37;;;15.30;99.90;;;;;;10498677;28;20048;-46
2023/10/31 21:42:21;;;;;;;11.47;2.13;;;15.00;99.90;;;;;;10504215;28;20044;-34
2023/10/31 21:47:23;;;;;;;9.93;2.20;;;14.70;99.90;;;;;;10490570;28;20117;-36
2023/10/31 21:52:25;;;;;;;7.70;1.23;;;14.30;99.90;;;;;;10488993;28;20068;-30
2023/10/31 21:57:28;;;;;;;42.63;2.13;;;14.20;99.90;;;;;;10489340;28;20097;-31
2023/10/31 22:02:30;;;;;;;7.50;1.50;;;14.30;99.90;;;;;;10487917;28;20121;-40
2023/10/31 22:07:32;;;;;;;7.40;1.50;;;13.80;99.90;;;;;;10493802;28;20141;-42
2023/10/31 22:12:35;;;;;;;11.53;1.73;;;14.40;99.90;;;;;;10489884;28;20524;-30
2023/10/31 22:17:39;;;;;;;8.30;1.77;;;15.00;99.90;;;;;;10488086;28;20036;-34
2023/10/31 22:22:40;;;;;;;6.18;1.50;;;14.80;99.90;;;;;;10497496;28;20048;-31
2023/10/31 22:27:44;;;;;;;5.18;1.33;;;15.10;99.90;;;;;;10492135;28;20053;-38
2023/10/31 22:32:45;;;;;;;5.88;1.33;;;14.70;99.90;;;;;;10487204;28;20084;-31
2023/10/31 22:37:47;;;;;;;5.80;1.48;;;14.30;99.90;;;;;;10490775;28;20048;-41
2023/10/31 22:42:50;;;;;;;9.60;2.10;;;14.30;99.90;;;;;;10499101;28;20581;-32
2023/10/31 22:47:52;;;;;;;7.43;1.67;;;14.40;99.90;;;;;;10462898;28;20474;-41
2023/10/31 22:52:54;;;;;;;8.07;1.80;;;14.40;99.90;;;;;;10497909;28;20668;-35
2023/10/31 22:57:58;;;;;;;9.73;1.80;;;14.70;99.90;;;;;;10502376;28;20042;-36
2023/10/31 23:03:00;;;;;;;5.60;1.30;;;14.70;99.90;;;;;;10491754;28;20443;-37
2023/10/31 23:08:03;;;;;;;5.75;1.25;;;14.30;99.90;;;;;;10492068;28;20294;-40
2023/10/31 23:13:06;;;;;;;3.38;0.93;;;14.20;99.90;;;;;;10494744;28;20048;-35
2023/10/31 23:18:08;;;;;;;6.30;1.20;;;14.60;99.90;;;;;;10498965;28;20049;-36
2023/10/31 23:23:11;;;;;;;5.10;1.23;;;14.30;99.90;;;;;;10492650;28;20046;-29
2023/10/31 23:28:14;;;;;;;3.60;1.20;;;14.20;99.90;;;;;;10469855;28;20073;-42
2023/10/31 23:33:16;;;;;;;5.60;1.20;;;14.80;99.90;;;;;;10487860;28;20142;-35
2023/10/31 23:38:18;;;;;;;11.73;1.77;;;14.70;99.90;;;;;;10493170;28;20138;-34
2023/10/31 23:43:21;;;;;;;5.72;1.23;;;14.50;99.90;;;;;;10499427;28;20036;-30
2023/10/31 23:48:23;;;;;;;4.18;1.63;;;14.80;99.90;;;;;;10488348;28;20198;-35
2023/10/31 23:53:24;;;;;;;4.85;1.42;;;15.10;99.90;;;;;;10482329;28;20548;-39
2023/10/31 23:58:27;;;;;;;8.40;1.87;;;14.70;99.90;;;;;;10493658;28;20040;-30
